createdAt,value
2018-08-28T00:01:34.908Z,2.27
2018-08-28T00:04:03.290Z,2.43
2018-08-28T00:06:32.239Z,2.33
2018-08-28T00:09:00.518Z,4.30
2018-08-28T00:11:28.838Z,3.77
2018-08-28T00:13:58.568Z,3.80
2018-08-28T00:16:28.187Z,2.33
2018-08-28T00:18:59.303Z,4.37
2018-08-28T00:21:27.953Z,3.03
2018-08-28T00:23:57.375Z,2.87
2018-08-28T00:26:26.617Z,2.50
2018-08-28T00:28:55.939Z,2.73
2018-08-28T00:31:25.537Z,2.87
2018-08-28T00:33:54.626Z,3.40
2018-08-28T00:36:22.910Z,5.90
2018-08-28T00:38:51.477Z,2.40
2018-08-28T00:41:20.507Z,3.20
2018-08-28T00:43:48.924Z,5.80
2018-08-28T00:46:17.427Z,2.77
2018-08-28T00:48:45.719Z,2.87
2018-08-28T00:51:14.350Z,1.87
2018-08-28T00:53:42.609Z,2.33
2018-08-28T00:56:11.097Z,3.47
2018-08-28T00:58:39.416Z,3.83
2018-08-28T01:01:07.815Z,3.77
2018-08-28T01:03:36.046Z,3.43
2018-08-28T01:06:04.351Z,3.30
2018-08-28T01:08:32.795Z,4.13
2018-08-28T01:11:01.639Z,3.77
2018-08-28T01:13:29.836Z,3.20
2018-08-28T01:15:58.315Z,2.80
2018-08-28T01:18:27.036Z,3.43
2018-08-28T01:20:55.443Z,3.37
2018-08-28T01:23:25.309Z,3.97
2018-08-28T01:25:53.707Z,2.93
2018-08-28T01:28:21.969Z,3.80
2018-08-28T01:30:50.217Z,4.00
2018-08-28T01:33:18.806Z,3.23
2018-08-28T01:35:48.134Z,3.33
2018-08-28T01:38:16.591Z,3.40
2018-08-28T01:40:44.983Z,3.73
2018-08-28T01:43:18.518Z,3.53
2018-08-28T01:45:47.332Z,4.07
2018-08-28T01:48:15.803Z,5.07
2018-08-28T01:50:44.388Z,4.57
2018-08-28T01:53:13.165Z,5.20
2018-08-28T01:55:42.117Z,4.20
2018-08-28T01:58:10.570Z,6.83
2018-08-28T02:00:39.305Z,6.37
2018-08-28T02:03:07.557Z,4.60
2018-08-28T02:05:36.087Z,6.03
2018-08-28T02:08:04.804Z,5.93
2018-08-28T02:10:33.169Z,6.73
2018-08-28T02:13:02.350Z,4.60
2018-08-28T02:15:30.992Z,5.83
2018-08-28T02:17:59.543Z,6.63
2018-08-28T02:20:27.778Z,6.13
2018-08-28T02:22:56.278Z,5.67
2018-08-28T02:25:24.922Z,5.87
2018-08-28T02:27:53.302Z,5.77
2018-08-28T02:30:21.628Z,5.67
2018-08-28T02:32:50.415Z,8.63
2018-08-28T02:35:18.941Z,8.70
2018-08-28T02:37:47.413Z,5.97
2018-08-28T02:40:16.040Z,4.23
2018-08-28T02:42:44.542Z,4.77
2018-08-28T02:45:12.830Z,5.33
2018-08-28T02:47:41.620Z,4.53
2018-08-28T02:50:10.548Z,6.77
2018-08-28T02:52:39.549Z,6.17
2018-08-28T02:55:08.255Z,5.03
2018-08-28T02:57:37.082Z,4.50
2018-08-28T03:00:05.464Z,4.90
2018-08-28T03:02:33.893Z,4.47
2018-08-28T03:05:02.525Z,7.53
2018-08-28T03:07:31.498Z,5.10
2018-08-28T03:10:00.371Z,5.57
2018-08-28T03:12:28.754Z,4.43
2018-08-28T03:14:57.597Z,5.60
2018-08-28T03:17:26.086Z,5.30
2018-08-28T03:19:54.537Z,6.57
2018-08-28T03:22:23.354Z,5.17
2018-08-28T03:24:51.653Z,6.90
2018-08-28T03:27:20.026Z,7.87
2018-08-28T03:29:48.316Z,5.63
2018-08-28T03:32:16.618Z,6.23
2018-08-28T03:34:45.013Z,5.90
2018-08-28T03:37:21.662Z,7.83
2018-08-28T03:39:50.587Z,6.20
2018-08-28T03:42:20.341Z,6.63
2018-08-28T03:44:49.242Z,6.93
2018-08-28T03:47:18.871Z,7.23
2018-08-28T03:49:49.777Z,6.13
2018-08-28T03:52:47.024Z,6.97
2018-08-28T03:55:16.430Z,5.53
2018-08-28T03:57:44.754Z,6.13
2018-08-28T04:00:12.957Z,5.13
2018-08-28T04:02:41.221Z,6.03
2018-08-28T04:05:09.988Z,6.70
2018-08-28T04:07:38.319Z,6.20
2018-08-28T04:10:06.584Z,7.10
2018-08-28T04:12:34.843Z,7.23
2018-08-28T04:15:03.330Z,7.17
2018-08-28T04:17:35.798Z,5.00
2018-08-28T04:20:04.022Z,8.10
2018-08-28T04:22:32.405Z,6.23
2018-08-28T04:25:00.707Z,6.17
2018-08-28T04:27:28.962Z,7.27
2018-08-28T04:29:57.178Z,6.93
2018-08-28T04:32:25.511Z,7.33
2018-08-28T04:34:54.176Z,7.67
2018-08-28T04:37:22.374Z,9.20
2018-08-28T04:39:50.627Z,8.03
2018-08-28T04:42:18.946Z,7.57
2018-08-28T04:44:47.137Z,9.27
2018-08-28T04:47:15.361Z,6.70
2018-08-28T04:49:43.638Z,10.83
2018-08-28T04:52:11.944Z,8.83
2018-08-28T04:54:40.325Z,8.63
2018-08-28T04:57:08.604Z,9.33
2018-08-28T04:59:36.793Z,9.83
2018-08-28T05:02:05.242Z,8.57
2018-08-28T05:04:33.493Z,8.60
2018-08-28T05:07:01.955Z,9.73
2018-08-28T05:09:30.229Z,9.27
2018-08-28T05:11:58.439Z,8.90
2018-08-28T05:14:26.779Z,9.87
2018-08-28T05:16:55.072Z,8.53
2018-08-28T05:19:23.475Z,8.60
2018-08-28T05:21:51.591Z,10.80
2018-08-28T05:24:19.838Z,10.53
2018-08-28T05:26:48.128Z,10.13
2018-08-28T05:29:16.360Z,9.10
2018-08-28T05:31:44.553Z,12.43
2018-08-28T05:34:12.785Z,11.10
2018-08-28T05:36:41.180Z,11.90
2018-08-28T05:39:09.475Z,12.13
2018-08-28T05:41:37.753Z,10.03
2018-08-28T05:44:05.985Z,12.00
2018-08-28T05:46:34.193Z,13.40
2018-08-28T05:49:02.663Z,10.40
2018-08-28T05:51:30.987Z,10.43
2018-08-28T05:53:59.533Z,12.00
2018-08-28T05:56:27.738Z,11.20
2018-08-28T05:58:56.026Z,10.67
2018-08-28T06:01:24.350Z,12.57
2018-08-28T06:03:52.584Z,10.97
2018-08-28T06:06:20.881Z,12.73
2018-08-28T06:08:49.203Z,11.03
2018-08-28T06:11:17.525Z,11.60
2018-08-28T06:13:45.753Z,9.43
2018-08-28T06:16:13.981Z,10.63
2018-08-28T06:18:42.197Z,10.50
2018-08-28T06:21:10.901Z,11.83
2018-08-28T06:23:39.211Z,9.83
2018-08-28T06:26:07.427Z,13.23
2018-08-28T06:28:35.659Z,8.17
2018-08-28T06:31:03.926Z,11.33
2018-08-28T06:33:32.178Z,12.13
2018-08-28T06:36:00.396Z,10.73
2018-08-28T06:38:28.634Z,10.30
2018-08-28T06:40:56.850Z,12.87
2018-08-28T06:43:25.133Z,10.97
2018-08-28T06:45:53.496Z,12.33
2018-08-28T06:48:21.691Z,12.53
2018-08-28T06:50:49.899Z,14.47
2018-08-28T06:53:18.125Z,12.17
2018-08-28T06:55:46.375Z,10.77
2018-08-28T06:58:14.569Z,13.37
2018-08-28T07:00:42.783Z,11.30
2018-08-28T07:03:11.102Z,10.70
2018-08-28T07:05:39.527Z,13.20
2018-08-28T07:08:07.726Z,10.87
2018-08-28T07:10:35.944Z,9.33
2018-08-28T07:13:04.185Z,10.50
2018-08-28T07:15:32.482Z,15.90
2018-08-28T07:18:00.699Z,9.57
2018-08-28T07:20:28.898Z,9.03
2018-08-28T07:22:57.120Z,8.43
2018-08-28T07:25:25.355Z,7.27
2018-08-28T07:27:53.568Z,10.50
2018-08-28T07:30:21.892Z,11.20
2018-08-28T07:32:50.087Z,9.57
2018-08-28T07:35:18.396Z,9.47
2018-08-28T07:37:46.573Z,6.83
2018-08-28T07:40:14.791Z,8.20
2018-08-28T07:42:42.999Z,6.70
2018-08-28T07:45:11.292Z,9.60
2018-08-28T07:47:40.398Z,11.10
2018-08-28T07:50:08.585Z,7.17
2018-08-28T07:52:36.848Z,7.03
2018-08-28T07:55:05.132Z,8.33
2018-08-28T07:57:33.490Z,14.57
2018-08-28T08:00:01.852Z,6.77
2018-08-28T08:02:30.116Z,5.65
2018-08-28T08:04:58.395Z,7.33
2018-08-28T08:07:27.077Z,6.55
2018-08-28T08:09:55.515Z,7.08
2018-08-28T08:12:23.799Z,7.35
2018-08-28T08:14:52.145Z,7.47
2018-08-28T08:17:20.362Z,6.20
2018-08-28T08:19:48.665Z,9.58
2018-08-28T08:22:17.217Z,8.50
2018-08-28T08:24:45.394Z,8.60
2018-08-28T08:27:13.681Z,7.08
2018-08-28T08:29:42.313Z,6.15
2018-08-28T08:32:10.650Z,8.25
2018-08-28T08:34:38.889Z,7.72
2018-08-28T08:37:07.295Z,5.55
2018-08-28T08:39:35.513Z,6.80
2018-08-28T08:42:03.812Z,6.60
2018-08-28T08:44:32.240Z,5.78
2018-08-28T08:47:00.466Z,7.83
2018-08-28T08:49:28.710Z,9.48
2018-08-28T08:51:57.261Z,6.05
2018-08-28T08:54:25.625Z,6.05
2018-08-28T08:56:53.875Z,5.90
2018-08-28T08:59:22.130Z,8.40
2018-08-28T09:01:50.351Z,6.85
2018-08-28T09:04:18.703Z,10.82
2018-08-28T09:06:47.152Z,6.08
2018-08-28T09:09:15.711Z,5.15
2018-08-28T09:11:43.936Z,7.22
2018-08-28T09:14:12.179Z,7.75
2018-08-28T09:16:40.485Z,6.17
2018-08-28T09:19:08.801Z,6.90
2018-08-28T09:21:37.044Z,6.87
2018-08-28T09:24:05.268Z,6.53
2018-08-28T09:26:33.549Z,6.60
2018-08-28T09:29:01.765Z,8.48
2018-08-28T09:31:30.119Z,6.33
2018-08-28T09:33:58.310Z,5.28
2018-08-28T09:36:26.605Z,6.03
2018-08-28T09:38:54.924Z,6.60
2018-08-28T09:41:23.121Z,6.75
2018-08-28T09:43:51.486Z,6.22
2018-08-28T09:46:19.660Z,7.67
2018-08-28T09:48:48.092Z,6.35
2018-08-28T09:51:16.505Z,4.95
2018-08-28T09:53:44.716Z,6.40
2018-08-28T09:56:12.912Z,6.72
2018-08-28T09:58:41.189Z,6.97
2018-08-28T10:01:14.784Z,5.87
2018-08-28T10:03:43.019Z,8.68
2018-08-28T10:06:11.361Z,7.55
2018-08-28T10:08:39.722Z,9.13
2018-08-28T10:11:08.073Z,6.15
2018-08-28T10:13:36.299Z,6.50
2018-08-28T10:16:04.525Z,8.23
2018-08-28T10:18:32.766Z,6.28
2018-08-28T10:21:01.042Z,6.67
2018-08-28T10:23:29.262Z,6.28
2018-08-28T10:25:57.453Z,5.40
2018-08-28T10:28:25.774Z,8.30
2018-08-28T10:30:53.985Z,7.70
2018-08-28T10:33:24.003Z,5.20
2018-08-28T10:35:59.385Z,6.45
2018-08-28T10:38:28.488Z,7.58
2018-08-28T10:40:58.388Z,5.78
2018-08-28T10:43:28.456Z,5.97
2018-08-28T10:45:57.787Z,5.75
2018-08-28T10:48:27.690Z,7.72
2018-08-28T10:50:56.905Z,8.90
2018-08-28T10:53:25.605Z,7.22
2018-08-28T10:55:54.630Z,9.40
2018-08-28T10:58:23.838Z,5.78
2018-08-28T11:00:52.898Z,7.83
2018-08-28T11:05:58.345Z,5.97
2018-08-28T11:08:26.640Z,6.03
2018-08-28T11:10:54.911Z,8.73
2018-08-28T11:13:23.130Z,7.53
2018-08-28T11:15:51.394Z,7.87
2018-08-28T11:18:19.646Z,7.17
2018-08-28T11:20:47.922Z,6.42
2018-08-28T11:23:16.280Z,7.28
2018-08-28T11:25:44.497Z,8.08
2018-08-28T11:28:12.702Z,5.90
2018-08-28T11:30:41.489Z,5.55
2018-08-28T11:33:09.841Z,8.28
2018-08-28T11:35:38.110Z,7.03
2018-08-28T11:38:06.472Z,7.08
2018-08-28T11:40:34.725Z,8.08
2018-08-28T11:43:02.975Z,5.58
2018-08-28T11:45:31.194Z,6.70
2018-08-28T11:47:59.442Z,5.75
2018-08-28T11:50:27.759Z,6.75
2018-08-28T11:52:56.141Z,6.00
2018-08-28T11:55:24.358Z,9.40
2018-08-28T11:57:52.662Z,4.60
2018-08-28T12:00:20.905Z,8.05
2018-08-28T12:02:49.366Z,6.65
2018-08-28T12:05:17.797Z,5.75
2018-08-28T12:07:46.090Z,6.33
2018-08-28T12:10:14.318Z,8.35
2018-08-28T12:12:42.685Z,7.53
2018-08-28T12:15:11.035Z,5.05
2018-08-28T12:17:39.510Z,6.50
2018-08-28T12:20:08.875Z,7.33
2018-08-28T12:22:37.530Z,7.20
2018-08-28T12:25:05.924Z,6.25
2018-08-28T12:27:34.216Z,7.15
2018-08-28T12:30:03.037Z,7.05
2018-08-28T12:32:31.274Z,8.48
2018-08-28T12:34:59.658Z,6.62
2018-08-28T12:37:28.028Z,5.15
2018-08-28T12:39:56.343Z,5.92
2018-08-28T12:42:24.758Z,8.30
2018-08-28T12:44:53.061Z,5.80
2018-08-28T12:47:21.297Z,8.20
2018-08-28T12:49:49.658Z,6.10
2018-08-28T12:52:17.970Z,6.95
2018-08-28T12:54:46.228Z,7.00
2018-08-28T12:57:14.542Z,6.62
2018-08-28T12:59:42.798Z,9.78
2018-08-28T13:02:11.214Z,7.50
2018-08-28T13:04:39.766Z,5.25
2018-08-28T13:07:08.027Z,7.35
2018-08-28T13:09:36.252Z,6.12
2018-08-28T13:12:04.470Z,6.62
2018-08-28T13:14:32.784Z,5.08
2018-08-28T13:17:01.129Z,7.83
2018-08-28T13:19:29.393Z,5.35
2018-08-28T13:21:57.723Z,8.40
2018-08-28T13:24:25.998Z,7.22
2018-08-28T13:26:54.249Z,6.40
2018-08-28T13:29:22.497Z,9.30
2018-08-28T13:31:50.802Z,4.45
2018-08-28T13:34:19.018Z,8.28
2018-08-28T13:36:48.099Z,10.35
2018-08-28T13:39:16.400Z,8.23
2018-08-28T13:41:44.814Z,9.65
2018-08-28T13:44:13.395Z,7.22
2018-08-28T13:46:42.053Z,4.35
2018-08-28T13:49:10.419Z,8.45
2018-08-28T13:51:38.651Z,5.65
2018-08-28T13:54:07.065Z,8.20
2018-08-28T13:56:35.561Z,5.35
2018-08-28T13:59:04.235Z,8.80
2018-08-28T14:01:32.963Z,6.53
2018-08-28T14:04:01.445Z,11.57
2018-08-28T14:06:29.826Z,6.85
2018-08-28T14:08:58.084Z,6.60
2018-08-28T14:11:26.846Z,5.10
2018-08-28T14:13:55.166Z,9.23
2018-08-28T14:16:23.631Z,7.30
2018-08-28T14:18:51.917Z,6.80
2018-08-28T14:21:20.227Z,7.17
2018-08-28T14:23:48.695Z,7.87
2018-08-28T14:26:17.057Z,8.60
2018-08-28T14:28:47.867Z,7.33
2018-08-28T14:31:17.430Z,6.67
2018-08-28T14:33:45.828Z,6.05
2018-08-28T14:36:14.021Z,8.48
2018-08-28T14:38:42.411Z,8.68
2018-08-28T14:41:10.803Z,6.58
2018-08-28T14:43:39.258Z,9.68
2018-08-28T14:46:07.663Z,7.53
2018-08-28T14:48:35.973Z,6.55
2018-08-28T14:51:04.296Z,9.55
2018-08-28T14:53:32.822Z,6.50
2018-08-28T14:56:01.771Z,8.95
2018-08-28T14:58:30.483Z,8.95
2018-08-28T15:00:58.846Z,14.45
2018-08-28T15:03:27.290Z,5.78
2018-08-28T15:05:57.118Z,7.50
2018-08-28T15:08:25.549Z,10.25
2018-08-28T15:10:53.898Z,10.40
2018-08-28T15:13:22.119Z,9.75
2018-08-28T15:16:08.420Z,8.65
2018-08-28T15:18:37.397Z,7.83
2018-08-28T15:21:05.659Z,7.60
2018-08-28T15:23:33.850Z,8.68
2018-08-28T15:26:02.249Z,8.95
2018-08-28T15:28:30.458Z,9.18
2018-08-28T15:30:58.670Z,8.10
2018-08-28T15:33:27.307Z,8.23
2018-08-28T15:35:55.737Z,10.25
2018-08-28T15:38:23.989Z,8.75
2018-08-28T15:40:52.269Z,7.15
2018-08-28T15:43:20.534Z,6.60
2018-08-28T15:45:49.447Z,6.90
2018-08-28T15:48:17.916Z,7.20
2018-08-28T15:50:46.530Z,5.92
2018-08-28T15:53:14.749Z,7.60
2018-08-28T15:55:42.987Z,5.87
2018-08-28T15:58:11.318Z,5.25
2018-08-28T16:00:39.726Z,8.40
2018-08-28T16:03:07.966Z,8.95
2018-08-28T16:05:36.238Z,7.30
2018-08-28T16:08:04.615Z,6.87
2018-08-28T16:10:32.969Z,6.22
2018-08-28T16:13:01.643Z,8.70
2018-08-28T16:15:29.899Z,6.83
2018-08-28T16:17:58.212Z,14.15
2018-08-28T16:20:26.670Z,4.87
2018-08-28T16:22:58.245Z,17.37
2018-08-28T16:25:26.632Z,5.40
2018-08-28T16:27:54.878Z,7.53
2018-08-28T16:30:23.099Z,6.72
2018-08-28T16:32:51.461Z,7.05
2018-08-28T16:35:19.707Z,8.38
2018-08-28T16:37:48.011Z,9.50
2018-08-28T16:40:16.305Z,10.40
2018-08-28T16:42:44.678Z,6.70
2018-08-28T16:45:13.061Z,9.10
2018-08-28T16:47:41.667Z,7.70
2018-08-28T16:50:11.348Z,5.78
2018-08-28T16:52:40.230Z,5.12
2018-08-28T16:55:08.466Z,5.80
2018-08-28T16:57:36.892Z,8.85
2018-08-28T17:00:05.305Z,7.35
2018-08-28T17:02:34.162Z,7.40
2018-08-28T17:05:02.586Z,7.58
2018-08-28T17:07:30.858Z,9.85
2018-08-28T17:09:59.136Z,10.58
2018-08-28T17:12:27.502Z,6.67
2018-08-28T17:14:55.899Z,5.87
2018-08-28T17:17:24.157Z,4.95
2018-08-28T17:19:52.537Z,7.47
2018-08-28T17:22:20.942Z,7.97
2018-08-28T17:24:49.556Z,6.35
2018-08-28T17:27:18.054Z,7.05
2018-08-28T17:29:46.326Z,7.90
2018-08-28T17:32:14.586Z,6.80
2018-08-28T17:34:43.431Z,8.08
2018-08-28T17:37:11.839Z,7.15
2018-08-28T17:39:40.393Z,5.85
2018-08-28T17:42:08.824Z,5.33
2018-08-28T17:44:37.102Z,5.23
2018-08-28T17:47:05.681Z,7.07
2018-08-28T17:49:34.114Z,8.27
2018-08-28T17:52:02.526Z,6.03
2018-08-28T17:54:30.742Z,7.13
2018-08-28T17:56:59.003Z,5.80
2018-08-28T17:59:27.213Z,7.40
2018-08-28T18:01:55.710Z,6.77
2018-08-28T18:04:23.954Z,9.63
2018-08-28T18:06:52.230Z,5.67
2018-08-28T18:09:20.494Z,11.57
2018-08-28T18:11:48.909Z,4.60
2018-08-28T18:14:17.290Z,5.07
2018-08-28T18:16:45.549Z,6.73
2018-08-28T18:19:13.820Z,10.23
2018-08-28T18:21:42.262Z,7.53
2018-08-28T18:24:10.620Z,6.83
2018-08-28T18:26:38.837Z,11.63
2018-08-28T18:29:07.398Z,6.50
2018-08-28T18:31:35.587Z,7.03
2018-08-28T18:34:03.980Z,7.10
2018-08-28T18:36:32.309Z,7.87
2018-08-28T18:39:00.566Z,7.20
2018-08-28T18:41:28.824Z,6.63
2018-08-28T18:43:57.059Z,8.47
2018-08-28T18:46:25.267Z,8.47
2018-08-28T18:48:53.483Z,6.63
2018-08-28T18:51:21.707Z,7.50
2018-08-28T18:53:49.969Z,8.30
2018-08-28T18:56:18.417Z,7.53
2018-08-28T18:58:46.537Z,9.73
2018-08-28T19:01:14.734Z,8.67
2018-08-28T19:03:43.123Z,8.27
2018-08-28T19:06:11.459Z,7.07
2018-08-28T19:08:39.696Z,6.93
2018-08-28T19:11:08.003Z,7.40
2018-08-28T19:13:36.181Z,6.30
2018-08-28T19:16:04.613Z,9.60
2018-08-28T19:18:32.846Z,8.57
2018-08-28T19:21:01.092Z,7.13
2018-08-28T19:23:29.248Z,9.67
2018-08-28T19:25:57.535Z,8.10
2018-08-28T19:28:25.838Z,10.47
2018-08-28T19:30:54.117Z,9.07
2018-08-28T19:33:22.353Z,14.13
2018-08-28T19:35:50.587Z,9.47
2018-08-28T19:38:18.883Z,7.43
2018-08-28T19:40:47.119Z,8.37
2018-08-28T19:43:15.329Z,7.67
2018-08-28T19:45:44.026Z,10.47
2018-08-28T19:48:12.311Z,9.50
2018-08-28T19:50:40.742Z,7.23
2018-08-28T19:53:08.955Z,5.90
2018-08-28T19:55:37.249Z,8.87
2018-08-28T19:58:05.476Z,8.37
2018-08-28T20:00:33.847Z,9.43
2018-08-28T20:03:02.224Z,6.10
2018-08-28T20:05:30.499Z,8.67
2018-08-28T20:07:58.921Z,8.53
2018-08-28T20:10:27.212Z,9.13
2018-08-28T20:12:55.497Z,7.50
2018-08-28T20:15:23.688Z,9.70
2018-08-28T20:17:51.927Z,12.13
2018-08-28T20:20:20.170Z,9.40
2018-08-28T20:22:48.609Z,8.83
2018-08-28T20:25:17.008Z,8.03
2018-08-28T20:27:45.247Z,9.30
2018-08-28T20:30:13.524Z,10.13
2018-08-28T20:32:41.883Z,7.90
2018-08-28T20:35:10.233Z,11.73
2018-08-28T20:37:38.464Z,9.70
2018-08-28T20:40:06.799Z,8.37
2018-08-28T20:42:35.026Z,7.00
2018-08-28T20:45:03.514Z,6.50
2018-08-28T20:47:31.747Z,9.00
2018-08-28T20:50:00.097Z,11.07
2018-08-28T20:52:28.422Z,8.33
2018-08-28T20:54:57.151Z,12.80
2018-08-28T20:57:25.431Z,10.03
2018-08-28T20:59:53.841Z,9.87
2018-08-28T21:02:22.173Z,9.73
2018-08-28T21:04:50.473Z,11.73
2018-08-28T21:07:18.912Z,10.50
2018-08-28T21:09:47.228Z,16.97
2018-08-28T21:12:15.629Z,11.87
2018-08-28T21:14:43.854Z,8.70
2018-08-28T21:17:12.288Z,8.13
2018-08-28T21:19:40.686Z,7.77
2018-08-28T21:22:08.865Z,9.83
2018-08-28T21:24:37.216Z,8.80
2018-08-28T21:27:05.482Z,8.17
2018-08-28T21:29:34.041Z,9.07
2018-08-28T21:32:02.438Z,7.60
2018-08-28T21:34:30.747Z,11.33
2018-08-28T21:36:59.046Z,7.80
2018-08-28T21:39:27.972Z,13.57
2018-08-28T21:41:56.333Z,9.13
2018-08-28T21:44:24.748Z,9.77
2018-08-28T21:46:53.040Z,8.67
2018-08-28T21:49:21.306Z,11.17
2018-08-28T21:51:49.742Z,12.20
2018-08-28T21:54:18.009Z,7.87
2018-08-28T21:56:46.451Z,13.03
2018-08-28T21:59:14.782Z,9.93
2018-08-28T22:01:42.989Z,10.93
2018-08-28T22:04:11.877Z,9.73
2018-08-28T22:06:45.486Z,8.90
2018-08-28T22:09:13.800Z,9.23
2018-08-28T22:11:42.095Z,8.07
2018-08-28T22:14:10.434Z,8.00
2018-08-28T22:16:38.690Z,12.27
2018-08-28T22:19:06.994Z,10.90
2018-08-28T22:21:35.289Z,10.00
2018-08-28T22:24:03.631Z,15.60
2018-08-28T22:26:31.854Z,11.17
2018-08-28T22:29:00.188Z,11.67
2018-08-28T22:31:28.518Z,10.53
2018-08-28T22:33:56.756Z,10.97
2018-08-28T22:36:24.915Z,11.47
2018-08-28T22:38:53.351Z,11.50
2018-08-28T22:41:21.648Z,10.87
2018-08-28T22:43:50.019Z,10.37
2018-08-28T22:46:18.410Z,10.07
2018-08-28T22:48:46.745Z,9.80
2018-08-28T22:51:14.989Z,11.37
2018-08-28T22:53:43.386Z,8.27
2018-08-28T22:56:11.773Z,9.90
2018-08-28T22:58:40.009Z,12.40
2018-08-28T23:01:08.467Z,9.90
2018-08-28T23:03:36.850Z,9.63
2018-08-28T23:06:05.065Z,9.57
2018-08-28T23:08:33.398Z,12.37
2018-08-28T23:11:01.759Z,11.83
2018-08-28T23:13:30.025Z,8.10
2018-08-28T23:15:58.222Z,9.93
2018-08-28T23:18:26.590Z,12.77
2018-08-28T23:20:55.129Z,10.73
2018-08-28T23:23:23.396Z,10.77
2018-08-28T23:25:51.617Z,9.73
2018-08-28T23:28:19.929Z,7.83
2018-08-28T23:30:48.309Z,11.43
2018-08-28T23:33:16.705Z,9.43
2018-08-28T23:35:44.878Z,10.03
2018-08-28T23:38:13.291Z,8.30
2018-08-28T23:40:41.645Z,12.87
2018-08-28T23:43:09.851Z,12.63
2018-08-28T23:45:38.019Z,9.90
2018-08-28T23:48:06.301Z,8.90
2018-08-28T23:50:34.625Z,10.83
2018-08-28T23:53:02.853Z,9.03
2018-08-28T23:55:31.053Z,11.70
2018-08-28T23:57:59.252Z,8.40
